createdAt,value
2023-04-26T00:01:19.580Z,12.59
2023-04-26T00:03:46.478Z,12.57
2023-04-26T00:06:14.200Z,12.52
2023-04-26T00:08:42.609Z,12.46
2023-04-26T00:11:09.386Z,12.40
2023-04-26T00:13:37.694Z,12.36
2023-04-26T00:16:05.490Z,12.32
2023-04-26T00:18:33.402Z,12.26
2023-04-26T00:20:59.913Z,12.23
2023-04-26T00:23:26.733Z,12.19
2023-04-26T00:25:53.373Z,12.15
2023-04-26T00:28:20.088Z,12.09
2023-04-26T00:30:48.245Z,12.06
2023-04-26T00:33:15.147Z,12.01
2023-04-26T00:35:41.992Z,11.97
2023-04-26T00:38:09.203Z,11.92
2023-04-26T00:40:36.040Z,11.88
2023-04-26T00:43:02.617Z,11.83
2023-04-26T00:45:29.795Z,11.81
2023-04-26T00:47:56.670Z,11.78
2023-04-26T00:50:23.215Z,11.74
2023-04-26T00:52:49.864Z,11.69
2023-04-26T00:55:16.415Z,11.66
2023-04-26T00:57:44.265Z,11.64
2023-04-26T01:00:11.151Z,11.60
2023-04-26T01:02:38.236Z,11.56
2023-04-26T01:05:06.822Z,11.51
2023-04-26T01:07:34.013Z,11.47
2023-04-26T01:10:05.684Z,11.43
2023-04-26T01:12:32.618Z,11.38
2023-04-26T01:14:59.338Z,11.35
2023-04-26T01:17:25.910Z,11.34
2023-04-26T01:19:52.826Z,11.34
2023-04-26T01:22:19.499Z,11.34
2023-04-26T01:24:48.170Z,11.35
2023-04-26T01:27:16.134Z,11.36
2023-04-26T01:29:42.822Z,11.38
2023-04-26T01:32:09.449Z,11.40
2023-04-26T01:34:36.731Z,11.42
2023-04-26T01:37:03.397Z,11.42
2023-04-26T01:39:30.761Z,11.43
2023-04-26T01:42:00.371Z,11.43
2023-04-26T01:44:26.974Z,11.43
2023-04-26T01:46:53.483Z,11.43
2023-04-26T01:49:19.913Z,11.44
2023-04-26T01:51:47.412Z,11.47
2023-04-26T01:54:14.205Z,11.52
2023-04-26T01:56:40.888Z,11.53
2023-04-26T01:59:07.529Z,11.49
2023-04-26T02:01:34.514Z,11.45
2023-04-26T02:04:01.098Z,11.43
2023-04-26T02:06:27.891Z,11.40
2023-04-26T02:08:54.737Z,11.35
2023-04-26T02:11:22.450Z,11.30
2023-04-26T02:13:48.954Z,11.30
2023-04-26T02:16:16.261Z,11.32
2023-04-26T02:18:43.760Z,11.33
2023-04-26T02:21:11.624Z,11.32
2023-04-26T02:23:38.262Z,11.31
2023-04-26T02:26:04.947Z,11.34
2023-04-26T02:28:31.625Z,11.34
2023-04-26T02:30:58.505Z,11.36
2023-04-26T02:33:25.227Z,11.39
2023-04-26T02:35:51.842Z,11.44
2023-04-26T02:38:19.324Z,11.50
2023-04-26T02:40:46.186Z,11.59
2023-04-26T02:43:13.064Z,11.66
2023-04-26T02:45:42.816Z,11.72
2023-04-26T02:48:10.923Z,11.74
2023-04-26T02:50:37.741Z,11.70
2023-04-26T02:53:04.541Z,11.65
2023-04-26T02:55:31.750Z,11.59
2023-04-26T02:57:58.397Z,11.54
2023-04-26T03:00:25.602Z,11.48
2023-04-26T03:02:52.504Z,11.44
2023-04-26T03:05:19.435Z,11.41
2023-04-26T03:07:46.988Z,11.40
2023-04-26T03:10:13.540Z,11.42
2023-04-26T03:12:40.954Z,11.43
2023-04-26T03:15:07.776Z,11.48
2023-04-26T03:17:34.875Z,11.53
2023-04-26T03:20:03.700Z,11.55
2023-04-26T03:22:30.810Z,11.59
2023-04-26T03:24:57.338Z,11.61
2023-04-26T03:27:24.680Z,11.62
2023-04-26T03:29:51.304Z,11.59
2023-04-26T03:32:18.220Z,11.55
2023-04-26T03:34:47.054Z,11.52
2023-04-26T03:37:13.843Z,11.54
2023-04-26T03:39:42.446Z,11.54
2023-04-26T03:42:09.787Z,11.54
2023-04-26T03:44:37.959Z,11.57
2023-04-26T03:47:04.916Z,11.62
2023-04-26T03:49:31.919Z,11.68
2023-04-26T03:51:58.882Z,11.74
2023-04-26T03:54:25.613Z,11.81
2023-04-26T03:56:52.298Z,11.84
2023-04-26T03:59:19.442Z,11.82
2023-04-26T04:01:46.070Z,11.80
2023-04-26T04:04:12.973Z,11.78
2023-04-26T04:06:41.388Z,11.73
2023-04-26T04:09:08.451Z,11.68
2023-04-26T04:11:36.477Z,11.64
2023-04-26T04:14:03.059Z,11.63
2023-04-26T04:16:29.769Z,11.66
2023-04-26T04:18:56.994Z,11.71
2023-04-26T04:21:23.647Z,11.77
2023-04-26T04:23:50.773Z,11.80
2023-04-26T04:26:18.588Z,11.79
2023-04-26T04:28:46.437Z,11.77
2023-04-26T04:31:13.335Z,11.78
2023-04-26T04:33:40.227Z,11.79
2023-04-26T04:36:07.641Z,11.80
2023-04-26T04:38:35.374Z,11.80
2023-04-26T04:41:03.966Z,11.81
2023-04-26T04:43:31.402Z,11.87
2023-04-26T04:45:58.431Z,11.92
2023-04-26T04:48:25.424Z,11.94
2023-04-26T04:50:52.134Z,11.94
2023-04-26T04:53:19.859Z,11.89
2023-04-26T04:55:46.628Z,11.83
2023-04-26T04:58:15.217Z,11.76
2023-04-26T05:00:42.836Z,11.74
2023-04-26T05:03:41.883Z,11.74
2023-04-26T05:06:09.421Z,11.79
2023-04-26T05:08:36.466Z,11.84
2023-04-26T05:11:05.387Z,11.87
2023-04-26T05:13:32.134Z,11.89
2023-04-26T05:15:59.409Z,11.93
2023-04-26T05:18:26.243Z,11.97
2023-04-26T05:20:53.492Z,12.01
2023-04-26T05:23:20.225Z,11.97
2023-04-26T05:25:46.958Z,11.94
2023-04-26T05:28:33.949Z,11.96
2023-04-26T05:31:19.225Z,12.02
2023-04-26T05:34:08.980Z,12.14
2023-04-26T05:36:37.446Z,12.23
2023-04-26T05:39:05.570Z,12.28
2023-04-26T05:41:32.676Z,12.25
2023-04-26T05:44:00.729Z,12.21
2023-04-26T05:46:27.875Z,12.18
2023-04-26T05:48:55.212Z,12.15
2023-04-26T05:51:22.168Z,12.15
2023-04-26T05:53:49.769Z,12.17
2023-04-26T05:56:16.945Z,12.19
2023-04-26T05:58:44.293Z,12.23
2023-04-26T06:01:11.799Z,12.25
2023-04-26T06:03:39.497Z,12.23
2023-04-26T06:06:08.037Z,12.20
2023-04-26T06:08:40.639Z,12.17
2023-04-26T06:11:09.415Z,12.14
2023-04-26T06:13:39.048Z,12.14
2023-04-26T06:16:06.496Z,12.19
2023-04-26T06:18:33.756Z,12.26
2023-04-26T06:21:00.416Z,12.35
2023-04-26T06:23:27.407Z,12.45
2023-04-26T06:25:54.270Z,12.55
2023-04-26T06:28:21.307Z,12.62
2023-04-26T06:30:48.197Z,12.67
2023-04-26T06:33:19.890Z,12.69
2023-04-26T06:35:47.166Z,12.77
2023-04-26T06:38:14.953Z,12.84
2023-04-26T06:40:46.363Z,12.85
2023-04-26T06:43:52.747Z,12.83
2023-04-26T06:46:56.869Z,12.82
2023-04-26T06:49:24.246Z,12.84
2023-04-26T06:51:53.789Z,12.89
2023-04-26T06:54:20.525Z,12.92
2023-04-26T06:56:47.288Z,12.92
2023-04-26T06:59:14.020Z,12.92
2023-04-26T07:01:40.849Z,12.94
2023-04-26T07:04:09.950Z,13.01
2023-04-26T07:06:38.424Z,13.04
2023-04-26T07:09:05.101Z,13.12
2023-04-26T07:11:32.034Z,13.25
2023-04-26T07:14:11.868Z,13.41
2023-04-26T07:16:40.387Z,13.61
2023-04-26T07:19:07.497Z,13.75
2023-04-26T07:21:34.097Z,13.87
2023-04-26T07:24:11.583Z,13.95
2023-04-26T07:26:41.133Z,13.97
2023-04-26T07:29:08.623Z,14.04
2023-04-26T07:31:35.231Z,14.11
2023-04-26T07:34:02.113Z,14.16
2023-04-26T07:36:29.008Z,14.25
2023-04-26T07:38:57.063Z,14.35
2023-04-26T07:41:23.972Z,14.45
2023-04-26T07:43:50.929Z,14.50
2023-04-26T07:46:18.072Z,14.56
2023-04-26T07:48:45.347Z,14.64
2023-04-26T07:51:12.507Z,14.73
2023-04-26T07:53:39.810Z,14.82
2023-04-26T07:56:09.273Z,14.90
2023-04-26T07:58:36.598Z,15.03
2023-04-26T08:01:03.665Z,15.10
2023-04-26T08:03:31.813Z,15.14
2023-04-26T08:05:58.886Z,15.15
2023-04-26T08:08:26.816Z,15.30
2023-04-26T08:10:54.095Z,15.51
2023-04-26T08:13:21.311Z,15.68
2023-04-26T08:15:48.065Z,15.72
2023-04-26T08:18:14.768Z,15.67
2023-04-26T08:20:41.407Z,15.71
2023-04-26T08:23:08.086Z,15.79
2023-04-26T08:25:34.805Z,15.81
2023-04-26T08:28:01.969Z,15.78
2023-04-26T08:30:29.059Z,15.75
2023-04-26T08:32:56.062Z,15.64
2023-04-26T08:35:22.669Z,15.61
2023-04-26T08:37:49.273Z,15.61
2023-04-26T08:40:15.951Z,15.54
2023-04-26T08:42:43.706Z,15.44
2023-04-26T08:45:12.752Z,15.41
2023-04-26T08:47:49.728Z,15.38
2023-04-26T08:50:20.142Z,15.45
2023-04-26T08:56:03.522Z,15.57
2023-04-26T08:59:04.531Z,15.73
2023-04-26T09:01:45.680Z,15.95
2023-04-26T09:04:23.914Z,16.21
2023-04-26T09:07:00.932Z,16.28
2023-04-26T09:09:35.189Z,16.24
2023-04-26T09:12:05.554Z,16.28
2023-04-26T09:14:39.807Z,16.32
2023-04-26T09:17:38.781Z,16.26
2023-04-26T09:20:26.890Z,16.20
2023-04-26T09:23:12.706Z,16.09
2023-04-26T09:25:42.300Z,15.98
2023-04-26T09:28:21.734Z,16.02
2023-04-26T09:30:51.661Z,16.06
2023-04-26T09:33:22.282Z,16.02
2023-04-26T09:35:55.833Z,15.90
2023-04-26T09:38:27.976Z,15.82
2023-04-26T09:41:05.117Z,15.74
2023-04-26T09:43:42.485Z,15.70
2023-04-26T09:46:26.840Z,15.69
2023-04-26T09:49:09.389Z,15.62
2023-04-26T09:52:05.753Z,15.50
2023-04-26T09:54:44.360Z,15.42
2023-04-26T09:57:22.555Z,15.38
2023-04-26T10:00:01.177Z,15.39
2023-04-26T10:02:32.753Z,15.43
2023-04-26T10:05:10.723Z,15.46
2023-04-26T10:07:42.237Z,15.50
2023-04-26T10:10:21.128Z,15.44
2023-04-26T10:12:49.225Z,15.27
2023-04-26T10:15:43.289Z,15.11
2023-04-26T10:18:11.518Z,14.91
2023-04-26T10:20:49.244Z,14.78
2023-04-26T10:23:20.928Z,14.78
2023-04-26T10:26:01.106Z,14.86
2023-04-26T10:28:55.339Z,14.99
2023-04-26T10:31:27.568Z,15.18
2023-04-26T10:34:37.108Z,15.42
2023-04-26T10:37:36.009Z,15.79
2023-04-26T10:40:45.307Z,16.18
2023-04-26T10:43:50.287Z,16.63
2023-04-26T10:46:47.932Z,16.88
2023-04-26T10:49:26.720Z,16.94
2023-04-26T10:52:13.100Z,16.86
2023-04-26T10:55:02.220Z,16.69
2023-04-26T10:57:53.891Z,16.37
2023-04-26T11:00:41.199Z,16.01
2023-04-26T11:03:35.525Z,15.71
2023-04-26T11:06:21.925Z,15.55
2023-04-26T11:09:47.936Z,15.45
2023-04-26T11:12:49.237Z,15.31
2023-04-26T11:16:14.552Z,15.22
2023-04-26T11:19:28.394Z,15.42
2023-04-26T11:21:57.871Z,15.73
2023-04-26T11:24:34.709Z,16.03
2023-04-26T11:27:09.815Z,16.31
2023-04-26T11:29:38.378Z,16.37
2023-04-26T11:32:14.278Z,16.31
2023-04-26T11:34:52.427Z,16.16
2023-04-26T11:37:31.264Z,16.01
2023-04-26T11:40:04.393Z,15.97
2023-04-26T11:42:38.118Z,15.88
2023-04-26T11:45:25.667Z,15.76
2023-04-26T11:47:55.647Z,15.63
2023-04-26T11:50:26.817Z,15.57
2023-04-26T11:52:58.474Z,15.51
2023-04-26T11:55:35.278Z,15.50
2023-04-26T11:58:15.240Z,15.52
2023-04-26T12:01:05.256Z,15.57
2023-04-26T12:03:39.678Z,15.59
2023-04-26T12:06:07.431Z,15.65
2023-04-26T12:08:38.845Z,15.72
2023-04-26T12:11:11.128Z,15.77
2023-04-26T12:13:40.673Z,15.76
2023-04-26T12:16:25.773Z,15.73
2023-04-26T12:18:59.028Z,15.73
2023-04-26T12:21:30.503Z,15.71
2023-04-26T12:24:06.853Z,15.67
2023-04-26T12:26:45.836Z,15.66
2023-04-26T12:29:38.595Z,15.67
2023-04-26T12:32:12.501Z,15.66
2023-04-26T12:34:50.108Z,15.65
2023-04-26T12:37:52.110Z,15.64
2023-04-26T12:40:37.191Z,15.60
2023-04-26T12:43:06.553Z,15.55
2023-04-26T12:45:50.431Z,15.51
2023-04-26T12:48:47.974Z,15.48
2023-04-26T12:51:20.037Z,15.39
2023-04-26T12:53:47.134Z,15.30
2023-04-26T12:56:23.991Z,15.24
2023-04-26T12:59:00.903Z,15.15
2023-04-26T13:01:29.564Z,15.02
2023-04-26T13:04:00.063Z,14.87
2023-04-26T13:06:32.079Z,14.68
2023-04-26T13:09:14.017Z,14.52
2023-04-26T13:11:58.841Z,14.42
2023-04-26T13:14:35.833Z,14.33
2023-04-26T13:17:17.689Z,14.27
2023-04-26T13:19:53.141Z,14.27
2023-04-26T13:25:17.798Z,14.31
2023-04-26T13:27:47.220Z,14.34
2023-04-26T13:30:15.680Z,14.39
2023-04-26T13:32:53.748Z,14.42
2023-04-26T13:35:23.774Z,14.44
2023-04-26T13:37:57.602Z,14.42
2023-04-26T13:40:29.082Z,14.36
2023-04-26T13:42:56.554Z,14.32
2023-04-26T13:45:23.822Z,14.30
2023-04-26T13:47:50.835Z,14.31
2023-04-26T13:50:19.097Z,14.30
2023-04-26T13:52:50.927Z,14.29
2023-04-26T13:55:25.136Z,14.35
2023-04-26T13:57:55.592Z,14.42
2023-04-26T14:00:23.501Z,14.48
2023-04-26T14:02:51.803Z,14.51
2023-04-26T14:05:19.719Z,14.47
2023-04-26T14:07:46.851Z,14.37
2023-04-26T14:10:14.743Z,14.34
2023-04-26T14:12:42.320Z,14.36
2023-04-26T14:15:09.671Z,14.34
2023-04-26T14:17:37.195Z,14.29
2023-04-26T14:20:04.924Z,14.22
2023-04-26T14:22:31.930Z,14.18
2023-04-26T14:27:45.712Z,14.07
2023-04-26T14:30:13.825Z,14.03
2023-04-26T14:32:41.787Z,14.00
2023-04-26T14:35:09.425Z,13.98
2023-04-26T14:37:36.545Z,13.99
2023-04-26T14:40:11.482Z,13.98
2023-04-26T14:42:45.182Z,13.94
2023-04-26T14:45:12.277Z,13.88
2023-04-26T14:47:39.178Z,13.81
2023-04-26T14:50:07.322Z,13.74
2023-04-26T14:52:35.489Z,13.75
2023-04-26T14:55:03.265Z,13.78
2023-04-26T14:57:31.907Z,13.81
2023-04-26T15:00:06.662Z,13.84
2023-04-26T15:02:34.383Z,13.86
2023-04-26T15:05:05.315Z,13.90
2023-04-26T15:07:33.305Z,13.89
2023-04-26T15:10:02.064Z,13.87
2023-04-26T15:12:35.314Z,13.85
2023-04-26T15:15:05.058Z,13.81
2023-04-26T15:17:36.133Z,13.79
2023-04-26T15:20:06.126Z,13.78
2023-04-26T15:22:34.169Z,13.81
2023-04-26T15:25:03.807Z,13.85
2023-04-26T15:27:34.197Z,13.85
2023-04-26T15:30:03.365Z,13.82
2023-04-26T15:32:32.878Z,13.79
2023-04-26T15:35:12.251Z,13.75
2023-04-26T15:37:40.409Z,13.72
2023-04-26T15:40:09.912Z,13.69
2023-04-26T15:42:40.309Z,13.67
2023-04-26T15:45:13.741Z,13.65
2023-04-26T15:48:17.226Z,13.68
2023-04-26T15:50:44.713Z,13.67
2023-04-26T15:53:11.917Z,13.68
2023-04-26T15:55:39.199Z,13.71
2023-04-26T15:58:14.145Z,13.71
2023-04-26T16:00:50.390Z,13.73
2023-04-26T16:03:17.543Z,13.73
2023-04-26T16:05:45.182Z,13.75
2023-04-26T16:08:14.830Z,13.76
2023-04-26T16:10:45.746Z,13.75
2023-04-26T16:13:12.771Z,13.73
2023-04-26T16:15:42.943Z,13.73
2023-04-26T16:18:10.345Z,13.71
2023-04-26T16:20:38.667Z,13.67
2023-04-26T16:23:06.924Z,13.64
2023-04-26T16:25:34.289Z,13.66
2023-04-26T16:28:01.655Z,13.67
2023-04-26T16:30:31.769Z,13.69
2023-04-26T16:32:58.784Z,13.68
2023-04-26T16:35:25.749Z,13.66
2023-04-26T16:37:52.721Z,13.64
2023-04-26T16:40:19.530Z,13.59
2023-04-26T16:42:46.372Z,13.54
2023-04-26T16:45:16.084Z,13.50
2023-04-26T16:47:43.305Z,13.50
2023-04-26T16:50:10.749Z,13.49
2023-04-26T16:52:38.141Z,13.49
2023-04-26T16:55:05.664Z,13.50
2023-04-26T16:57:32.755Z,13.52
2023-04-26T17:00:00.365Z,13.53
2023-04-26T17:02:27.821Z,13.55
2023-04-26T17:04:55.113Z,13.55
2023-04-26T17:07:22.153Z,13.53
2023-04-26T17:09:52.204Z,13.52
2023-04-26T17:12:19.006Z,13.50
2023-04-26T17:14:47.412Z,13.48
2023-04-26T17:17:14.223Z,13.47
2023-04-26T17:19:41.517Z,13.49
2023-04-26T17:22:08.625Z,13.51
2023-04-26T17:24:35.807Z,13.51
2023-04-26T17:27:02.774Z,13.51
2023-04-26T17:29:29.991Z,13.50
2023-04-26T17:31:57.109Z,13.51
2023-04-26T17:34:24.300Z,13.50
2023-04-26T17:36:52.391Z,13.51
2023-04-26T17:39:19.508Z,13.51
2023-04-26T17:41:46.671Z,13.51
2023-04-26T17:44:14.104Z,13.51
2023-04-26T17:46:40.985Z,13.50
2023-04-26T17:49:09.904Z,13.47
2023-04-26T17:51:39.005Z,13.46
2023-04-26T17:54:07.917Z,13.45
2023-04-26T17:56:36.019Z,13.41
2023-04-26T17:59:03.768Z,13.40
2023-04-26T18:01:32.908Z,13.37
2023-04-26T18:04:02.806Z,13.36
2023-04-26T18:06:31.483Z,13.34
2023-04-26T18:08:59.309Z,13.33
2023-04-26T18:11:26.914Z,13.30
2023-04-26T18:13:58.778Z,13.27
2023-04-26T18:16:26.813Z,13.25
2023-04-26T18:18:54.898Z,13.21
2023-04-26T18:21:22.574Z,13.20
2023-04-26T18:23:52.191Z,13.19
2023-04-26T18:26:22.620Z,13.20
2023-04-26T18:28:50.258Z,13.19
2023-04-26T18:31:17.883Z,13.16
2023-04-26T18:33:47.630Z,13.13
2023-04-26T18:36:16.214Z,13.10
2023-04-26T18:38:44.773Z,13.05
2023-04-26T18:41:12.636Z,13.00
2023-04-26T18:43:40.214Z,12.97
2023-04-26T18:46:08.003Z,12.94
2023-04-26T18:48:36.314Z,12.93
2023-04-26T18:51:04.030Z,12.93
2023-04-26T18:53:36.680Z,12.93
2023-04-26T18:56:04.059Z,12.93
2023-04-26T18:58:32.728Z,12.93
2023-04-26T19:01:01.084Z,12.92
2023-04-26T19:03:28.868Z,12.93
2023-04-26T19:05:56.236Z,12.95
2023-04-26T19:08:26.477Z,13.00
2023-04-26T19:10:55.036Z,13.05
2023-04-26T19:13:23.748Z,13.10
2023-04-26T19:15:51.551Z,13.14
2023-04-26T19:18:19.589Z,13.19
2023-04-26T19:20:49.597Z,13.23
2023-04-26T19:23:17.136Z,13.28
2023-04-26T19:25:44.473Z,13.33
2023-04-26T19:28:12.183Z,13.37
2023-04-26T19:30:39.282Z,13.41
2023-04-26T19:33:06.878Z,13.43
2023-04-26T19:35:34.563Z,13.44
2023-04-26T19:38:06.200Z,13.43
2023-04-26T19:40:37.971Z,13.38
2023-04-26T19:43:05.159Z,13.34
2023-04-26T19:45:32.514Z,13.31
2023-04-26T19:47:59.713Z,13.29
2023-04-26T19:50:27.038Z,13.28
2023-04-26T19:52:53.949Z,13.31
2023-04-26T19:55:21.053Z,13.32
2023-04-26T19:57:51.821Z,13.32
2023-04-26T20:00:20.781Z,13.29
2023-04-26T20:02:49.371Z,13.25
2023-04-26T20:05:16.709Z,13.21
2023-04-26T20:07:43.843Z,13.19
2023-04-26T20:10:11.092Z,13.16
2023-04-26T20:12:38.746Z,13.16
2023-04-26T20:15:06.934Z,13.20
2023-04-26T20:17:44.695Z,13.23
2023-04-26T20:20:11.995Z,13.27
2023-04-26T20:22:40.978Z,13.31
2023-04-26T20:25:08.732Z,13.33
2023-04-26T20:27:37.832Z,13.35
2023-04-26T20:30:06.603Z,13.36
2023-04-26T20:32:34.395Z,13.39
2023-04-26T20:35:01.759Z,13.42
2023-04-26T20:37:29.513Z,13.42
2023-04-26T20:39:57.343Z,13.40
2023-04-26T20:42:24.790Z,13.40
2023-04-26T20:44:54.651Z,13.34
2023-04-26T20:47:22.123Z,13.29
2023-04-26T20:49:49.244Z,13.29
2023-04-26T20:52:16.704Z,13.30
2023-04-26T20:54:43.706Z,13.32
2023-04-26T20:57:10.792Z,13.33
2023-04-26T20:59:40.911Z,13.35
2023-04-26T21:02:11.044Z,13.37
2023-04-26T21:04:41.106Z,13.39
2023-04-26T21:07:08.900Z,13.40
2023-04-26T21:09:37.386Z,13.38
2023-04-26T21:12:05.357Z,13.35
2023-04-26T21:14:33.002Z,13.34
2023-04-26T21:17:05.175Z,13.29
2023-04-26T21:19:32.853Z,13.22
2023-04-26T21:21:59.981Z,13.14
2023-04-26T21:24:27.970Z,13.10
2023-04-26T21:26:55.551Z,13.07
2023-04-26T21:29:22.855Z,13.02
2023-04-26T21:31:49.960Z,12.96
2023-04-26T21:34:17.392Z,12.87
2023-04-26T21:36:44.577Z,12.75
2023-04-26T21:39:12.172Z,12.53
2023-04-26T21:41:41.749Z,12.38
2023-04-26T21:44:08.823Z,12.21
2023-04-26T21:46:36.194Z,12.06
2023-04-26T21:49:03.591Z,11.87
2023-04-26T21:51:30.940Z,11.66
2023-04-26T21:53:58.254Z,11.57
2023-04-26T21:56:25.756Z,11.50
2023-04-26T21:58:53.062Z,11.42
2023-04-26T22:01:20.625Z,11.42
2023-04-26T22:04:06.822Z,11.49
2023-04-26T22:06:37.547Z,11.52
2023-04-26T22:09:04.999Z,11.53
2023-04-26T22:11:32.030Z,11.51
2023-04-26T22:13:59.110Z,11.50
2023-04-26T22:16:26.278Z,11.51
2023-04-26T22:18:53.487Z,11.49
2023-04-26T22:21:20.657Z,11.46
2023-04-26T22:23:48.089Z,11.40
2023-04-26T22:26:17.993Z,11.32
2023-04-26T22:28:47.669Z,11.21
2023-04-26T22:31:14.813Z,11.08
2023-04-26T22:33:42.058Z,10.96
2023-04-26T22:36:09.481Z,10.75
2023-04-26T22:38:36.684Z,10.61
2023-04-26T22:41:07.443Z,10.54
2023-04-26T22:43:35.230Z,10.55
2023-04-26T22:46:02.706Z,10.55
2023-04-26T22:48:29.756Z,10.52
2023-04-26T22:51:02.273Z,10.41
2023-04-26T22:53:29.710Z,10.20
2023-04-26T22:55:56.899Z,10.06
2023-04-26T22:58:25.333Z,10.08
2023-04-26T23:00:52.571Z,10.12
2023-04-26T23:03:19.888Z,10.09
2023-04-26T23:05:47.449Z,9.96
2023-04-26T23:08:14.453Z,9.78
2023-04-26T23:10:41.646Z,9.66
2023-04-26T23:13:09.147Z,9.60
2023-04-26T23:15:36.412Z,9.57
2023-04-26T23:18:04.176Z,9.53
2023-04-26T23:20:31.483Z,9.47
2023-04-26T23:22:58.665Z,9.44
2023-04-26T23:25:25.918Z,9.45
2023-04-26T23:27:53.189Z,9.42
2023-04-26T23:30:20.169Z,9.38
2023-04-26T23:32:47.286Z,9.37
2023-04-26T23:35:14.569Z,9.30
2023-04-26T23:37:41.621Z,9.15
2023-04-26T23:40:10.858Z,9.00
2023-04-26T23:42:38.165Z,8.94
2023-04-26T23:45:05.773Z,8.99
2023-04-26T23:47:33.064Z,9.00
2023-04-26T23:50:00.374Z,8.91
2023-04-26T23:52:27.735Z,8.83
2023-04-26T23:54:54.991Z,8.74
2023-04-26T23:57:22.107Z,8.68
2023-04-26T23:59:49.450Z,8.69
